Time;durP1;ratioP1;P1;durP2;ratioP2;P2;SDS_P1;SDS_P2;PMS_P1;PMS_P2;Temp;Humidity;BMP_temperature;BMP_pressure;BME280_temperature;BME280_humidity;BME280_pressure;Samples;Min_cycle;Max_cycle;Signal;HPM_P1;HPM_P2
2023/01/03 00:00:06;;;;;;;0.60;0.60;;;;;;;;;;4887645;29;20566;-79
2023/01/03 00:02:34;;;;;;;0.60;0.50;;;;;;;;;;4884127;29;20467;-79
2023/01/03 00:05:01;;;;;;;0.60;0.50;;;;;;;;;;4897584;29;20844;-79
2023/01/03 00:07:34;;;;;;;0.70;0.50;;;;;;;;;;4879082;29;20462;-80
2023/01/03 00:10:04;;;;;;;0.60;0.60;;;;;;;;;;4877417;29;20980;-78
2023/01/03 00:12:32;;;;;;;0.60;0.50;;;;;;;;;;4888639;29;20438;-79
2023/01/03 00:15:00;;;;;;;0.60;0.60;;;;;;;;;;4887704;29;20975;-78
2023/01/03 00:17:27;;;;;;;0.60;0.50;;;;;;;;;;4901586;29;20474;-78
2023/01/03 00:19:54;;;;;;;1.37;1.23;;;;;;;;;;4895407;29;20454;-79
2023/01/03 00:22:22;;;;;;;0.60;0.60;;;;;;;;;;4900548;29;20468;-79
2023/01/03 00:24:50;;;;;;;0.60;0.50;;;;;;;;;;4895662;29;20489;-80
2023/01/03 00:27:18;;;;;;;0.60;0.60;;;;;;;;;;4880396;29;20467;-79
2023/01/03 00:29:45;;;;;;;0.60;0.50;;;;;;;;;;4899526;29;20448;-80
2023/01/03 00:32:12;;;;;;;0.60;0.50;;;;;;;;;;4870512;29;20459;-79
2023/01/03 00:34:43;;;;;;;0.60;0.60;;;;;;;;;;4875046;29;20891;-79
2023/01/03 00:37:10;;;;;;;0.60;0.50;;;;;;;;;;4891473;29;20875;-80
2023/01/03 00:39:38;;;;;;;0.60;0.50;;;;;;;;;;4895174;29;20441;-79
2023/01/03 00:42:05;;;;;;;0.60;0.60;;;;;;;;;;4892864;29;20463;-81
2023/01/03 00:44:32;;;;;;;0.63;0.63;;;;;;;;;;4896478;29;21294;-80
2023/01/03 00:47:02;;;;;;;0.60;0.60;;;;;;;;;;4895063;29;20440;-79
2023/01/03 00:49:29;;;;;;;0.60;0.60;;;;;;;;;;4886783;29;20452;-78
2023/01/03 00:51:56;;;;;;;0.60;0.50;;;;;;;;;;4892025;29;20491;-81
2023/01/03 00:54:23;;;;;;;0.60;0.50;;;;;;;;;;4893866;29;20456;-79
2023/01/03 00:56:50;;;;;;;0.60;0.50;;;;;;;;;;4890179;29;20498;-79
2023/01/03 00:59:21;;;;;;;0.60;0.50;;;;;;;;;;4892218;29;20460;-77
2023/01/03 01:01:49;;;;;;;0.60;0.57;;;;;;;;;;4886371;29;21015;-79
2023/01/03 01:04:19;;;;;;;0.60;0.60;;;;;;;;;;4894743;29;20466;-81
2023/01/03 01:06:46;;;;;;;0.70;0.70;;;;;;;;;;4894021;29;21048;-79
2023/01/03 01:09:14;;;;;;;0.60;0.60;;;;;;;;;;4896289;29;20938;-79
2023/01/03 01:11:41;;;;;;;0.60;0.50;;;;;;;;;;4895848;29;20837;-79
2023/01/03 01:14:21;;;;;;;0.60;0.60;;;;;;;;;;4893306;29;20444;-80
2023/01/03 01:16:49;;;;;;;0.60;0.60;;;;;;;;;;4886452;29;20441;-79
2023/01/03 01:19:18;;;;;;;0.60;0.50;;;;;;;;;;4884348;29;20466;-79
2023/01/03 01:21:45;;;;;;;0.60;0.60;;;;;;;;;;4885966;29;20555;-80
2023/01/03 01:24:13;;;;;;;0.60;0.60;;;;;;;;;;4899853;29;20464;-79
2023/01/03 01:26:44;;;;;;;0.63;0.60;;;;;;;;;;4889205;29;20530;-79
2023/01/03 01:29:11;;;;;;;0.60;0.50;;;;;;;;;;4887747;29;20801;-80
2023/01/03 01:31:39;;;;;;;0.60;0.60;;;;;;;;;;4892942;29;20550;-78
2023/01/03 01:34:06;;;;;;;0.60;0.60;;;;;;;;;;4895037;29;20466;-79
2023/01/03 01:36:38;;;;;;;0.60;0.60;;;;;;;;;;4884648;29;20463;-79
2023/01/03 01:39:06;;;;;;;0.60;0.60;;;;;;;;;;4878547;29;20440;-80
2023/01/03 01:44:51;;;;;;;0.60;0.60;;;;;;;;;;4863559;29;20447;-78
2023/01/03 01:47:21;;;;;;;0.60;0.60;;;;;;;;;;4899922;29;20486;-77
2023/01/03 01:49:51;;;;;;;0.60;0.60;;;;;;;;;;4893612;29;20473;-79
2023/01/03 01:52:19;;;;;;;0.60;0.60;;;;;;;;;;4886250;29;20940;-81
2023/01/03 01:54:49;;;;;;;0.60;0.60;;;;;;;;;;4891383;29;20896;-80
2023/01/03 01:57:17;;;;;;;0.60;0.60;;;;;;;;;;4885797;29;20506;-80
2023/01/03 01:59:46;;;;;;;1.33;1.23;;;;;;;;;;4888003;29;20862;-81
2023/01/03 02:02:15;;;;;;;0.60;0.60;;;;;;;;;;4893274;29;21007;-80
2023/01/03 02:04:46;;;;;;;0.60;0.60;;;;;;;;;;4863286;29;21360;-80
2023/01/03 02:07:14;;;;;;;0.60;0.60;;;;;;;;;;4885459;29;20458;-80
2023/01/03 02:09:44;;;;;;;0.67;0.67;;;;;;;;;;4885231;29;20444;-80
2023/01/03 02:15:14;;;;;;;0.60;0.60;;;;;;;;;;4884993;29;20460;-78
2023/01/03 02:17:48;;;;;;;0.60;0.60;;;;;;;;;;4884661;29;20462;-80
2023/01/03 02:20:19;;;;;;;0.60;0.60;;;;;;;;;;4868353;29;20450;-79
2023/01/03 02:23:01;;;;;;;0.60;0.55;;;;;;;;;;4891147;29;20444;-80
2023/01/03 02:25:52;;;;;;;1.23;1.13;;;;;;;;;;4865248;29;20242;-80
2023/01/03 02:28:59;;;;;;;0.60;0.60;;;;;;;;;;4893065;29;21018;-79
2023/01/03 02:31:32;;;;;;;0.60;0.60;;;;;;;;;;4892379;29;20547;-80
2023/01/03 02:34:02;;;;;;;0.60;0.50;;;;;;;;;;4893520;29;20856;-79
2023/01/03 02:36:32;;;;;;;0.60;0.60;;;;;;;;;;4884715;29;20199;-80
2023/01/03 02:39:01;;;;;;;0.70;0.70;;;;;;;;;;4885478;29;20539;-80
2023/01/03 02:41:37;;;;;;;0.60;0.60;;;;;;;;;;4884858;29;20475;-79
2023/01/03 02:44:09;;;;;;;0.60;0.60;;;;;;;;;;4888255;29;20435;-79
2023/01/03 02:46:41;;;;;;;0.60;0.60;;;;;;;;;;4897215;29;20215;-81
2023/01/03 02:49:14;;;;;;;0.60;0.60;;;;;;;;;;4890725;29;20274;-79
2023/01/03 02:51:43;;;;;;;0.60;0.60;;;;;;;;;;4890449;29;20456;-80
2023/01/03 02:54:11;;;;;;;0.60;0.60;;;;;;;;;;4890223;29;20457;-81
2023/01/03 02:56:41;;;;;;;0.60;0.60;;;;;;;;;;4886155;29;20255;-80
2023/01/03 02:59:12;;;;;;;1.25;1.15;;;;;;;;;;4891442;29;20230;-80
2023/01/03 03:01:49;;;;;;;0.60;0.60;;;;;;;;;;4880178;29;20237;-81
2023/01/03 03:04:17;;;;;;;0.60;0.60;;;;;;;;;;4873486;29;20210;-81
2023/01/03 03:06:47;;;;;;;0.70;0.70;;;;;;;;;;4900627;29;20219;-80
2023/01/03 03:09:14;;;;;;;0.60;0.55;;;;;;;;;;4903199;29;20301;-80
2023/01/03 03:14:31;;;;;;;0.60;0.60;;;;;;;;;;4882385;29;20223;-81
2023/01/03 03:17:03;;;;;;;0.60;0.50;;;;;;;;;;4885172;29;20298;-81
2023/01/03 03:25:13;;;;;;;0.70;0.70;;;;;;;;;;4891975;29;20203;-81
2023/01/03 03:30:29;;;;;;;0.90;0.80;;;;;;;;;;4903987;29;20199;-80
2023/01/03 03:33:05;;;;;;;0.60;0.60;;;;;;;;;;4882058;29;20334;-80
2023/01/03 03:35:35;;;;;;;0.60;0.60;;;;;;;;;;4893573;29;20198;-80
2023/01/03 03:38:04;;;;;;;0.60;0.60;;;;;;;;;;4889176;29;20302;-80
2023/01/03 03:46:23;;;;;;;0.60;0.60;;;;;;;;;;4848493;29;20216;-80
2023/01/03 03:51:47;;;;;;;0.60;0.60;;;;;;;;;;4886346;29;20235;-80
2023/01/03 03:54:16;;;;;;;0.60;0.60;;;;;;;;;;4888382;29;20668;-80
2023/01/03 03:56:48;;;;;;;0.60;0.60;;;;;;;;;;4888750;29;20189;-80
2023/01/03 03:59:17;;;;;;;0.60;0.60;;;;;;;;;;4908165;29;20203;-81
2023/01/03 04:01:46;;;;;;;0.60;0.60;;;;;;;;;;4897937;29;20676;-78
2023/01/03 04:04:17;;;;;;;0.60;0.50;;;;;;;;;;4889922;29;20235;-78
2023/01/03 04:06:48;;;;;;;1.42;1.35;;;;;;;;;;4879590;29;20200;-79
2023/01/03 04:09:15;;;;;;;0.60;0.60;;;;;;;;;;4889604;29;20206;-80
2023/01/03 04:11:43;;;;;;;0.60;0.60;;;;;;;;;;4893497;29;20289;-80
2023/01/03 04:14:10;;;;;;;0.60;0.60;;;;;;;;;;4895320;29;20361;-78
2023/01/03 04:16:39;;;;;;;0.60;0.60;;;;;;;;;;4895918;29;20228;-78
2023/01/03 04:19:07;;;;;;;0.60;0.50;;;;;;;;;;4896596;29;20219;-79
2023/01/03 04:21:36;;;;;;;0.60;0.60;;;;;;;;;;4897117;29;20227;-78
2023/01/03 04:24:04;;;;;;;1.65;1.55;;;;;;;;;;4903955;29;20203;-79
2023/01/03 04:26:31;;;;;;;0.60;0.60;;;;;;;;;;4890541;29;20720;-79
2023/01/03 04:28:57;;;;;;;0.60;0.50;;;;;;;;;;4897815;29;20214;-80
2023/01/03 04:31:25;;;;;;;0.60;0.60;;;;;;;;;;4895095;29;20252;-80
2023/01/03 04:33:53;;;;;;;0.60;0.60;;;;;;;;;;4896255;29;20696;-81
2023/01/03 04:36:20;;;;;;;0.60;0.60;;;;;;;;;;4895626;29;20282;-81
2023/01/03 04:38:48;;;;;;;0.60;0.60;;;;;;;;;;4898817;29;20285;-80
2023/01/03 04:41:15;;;;;;;0.68;0.68;;;;;;;;;;4892211;29;20216;-81
2023/01/03 04:44:00;;;;;;;0.60;0.55;;;;;;;;;;4867606;29;20207;-81
2023/01/03 04:46:31;;;;;;;0.60;0.60;;;;;;;;;;4873129;29;20215;-80
2023/01/03 04:48:59;;;;;;;0.60;0.60;;;;;;;;;;4894738;29;20330;-80
2023/01/03 04:51:26;;;;;;;0.63;0.63;;;;;;;;;;4892582;29;20660;-78
2023/01/03 04:53:56;;;;;;;0.60;0.50;;;;;;;;;;4910244;29;20227;-79
2023/01/03 04:56:24;;;;;;;0.60;0.60;;;;;;;;;;4891820;29;20203;-79
2023/01/03 04:58:50;;;;;;;0.60;0.60;;;;;;;;;;4892096;29;20202;-78
2023/01/03 05:01:21;;;;;;;0.60;0.57;;;;;;;;;;4896540;29;20290;-80
2023/01/03 05:03:48;;;;;;;0.60;0.60;;;;;;;;;;4904218;29;20208;-80
2023/01/03 05:06:16;;;;;;;0.60;0.60;;;;;;;;;;4900535;29;20577;-79
2023/01/03 05:08:45;;;;;;;0.60;0.60;;;;;;;;;;4885581;29;20238;-79
2023/01/03 05:11:14;;;;;;;0.60;0.50;;;;;;;;;;4878336;29;20255;-79
2023/01/03 05:13:41;;;;;;;0.60;0.50;;;;;;;;;;4885981;29;20222;-79
2023/01/03 05:16:10;;;;;;;0.60;0.60;;;;;;;;;;4881979;29;20198;-79
2023/01/03 05:18:37;;;;;;;0.60;0.60;;;;;;;;;;4888982;29;20225;-80
2023/01/03 05:26:41;;;;;;;0.60;0.60;;;;;;;;;;4887777;29;20321;-79
2023/01/03 05:29:10;;;;;;;0.60;0.60;;;;;;;;;;4878843;29;20519;-80
2023/01/03 05:31:39;;;;;;;0.60;0.50;;;;;;;;;;4893727;29;21129;-79
2023/01/03 05:34:07;;;;;;;0.60;0.50;;;;;;;;;;4903561;29;20558;-77
2023/01/03 05:36:33;;;;;;;0.60;0.50;;;;;;;;;;4895651;29;20471;-79
2023/01/03 05:39:00;;;;;;;0.60;0.60;;;;;;;;;;4892349;29;20460;-80
2023/01/03 05:44:14;;;;;;;0.60;0.50;;;;;;;;;;4887341;29;20442;-80
2023/01/03 05:46:42;;;;;;;0.60;0.60;;;;;;;;;;4904027;29;20475;-79
2023/01/03 05:49:09;;;;;;;0.60;0.60;;;;;;;;;;4892547;29;20494;-78
2023/01/03 05:51:36;;;;;;;0.60;0.60;;;;;;;;;;4885211;29;20482;-79
2023/01/03 05:54:04;;;;;;;0.60;0.60;;;;;;;;;;4895820;29;20471;-80
2023/01/03 05:56:32;;;;;;;0.60;0.50;;;;;;;;;;4888970;29;20488;-80
2023/01/03 05:58:59;;;;;;;4.57;2.03;;;;;;;;;;4895024;29;20526;-81
2023/01/03 06:01:28;;;;;;;0.60;0.60;;;;;;;;;;4890334;29;20457;-80
2023/01/03 06:03:54;;;;;;;0.60;0.60;;;;;;;;;;4894195;29;20476;-79
2023/01/03 06:06:22;;;;;;;0.60;0.60;;;;;;;;;;4884031;29;20440;-79
2023/01/03 06:08:49;;;;;;;0.60;0.50;;;;;;;;;;4895614;29;20443;-81
2023/01/03 06:11:16;;;;;;;0.60;0.50;;;;;;;;;;4902015;29;20455;-80
2023/01/03 06:13:43;;;;;;;0.60;0.60;;;;;;;;;;4886086;29;20542;-80
2023/01/03 06:18:58;;;;;;;0.60;0.60;;;;;;;;;;4896216;29;20488;-80
2023/01/03 06:21:25;;;;;;;0.90;0.90;;;;;;;;;;4894947;29;20250;-78
2023/01/03 06:23:53;;;;;;;0.60;0.60;;;;;;;;;;4898928;29;20302;-79
2023/01/03 06:26:21;;;;;;;0.60;0.60;;;;;;;;;;4893651;29;20474;-80
2023/01/03 06:28:49;;;;;;;0.60;0.60;;;;;;;;;;4890339;29;20456;-80
2023/01/03 06:31:17;;;;;;;0.60;0.60;;;;;;;;;;4884263;29;20496;-81
2023/01/03 06:33:44;;;;;;;0.80;0.80;;;;;;;;;;4891491;29;20470;-80
2023/01/03 06:36:13;;;;;;;0.70;0.70;;;;;;;;;;4885094;29;20618;-80
2023/01/03 06:38:40;;;;;;;0.60;0.60;;;;;;;;;;4900733;29;20455;-80
2023/01/03 06:41:08;;;;;;;0.60;0.60;;;;;;;;;;4883821;29;20466;-81
2023/01/03 06:43:35;;;;;;;0.60;0.60;;;;;;;;;;4885437;29;20452;-79
2023/01/03 06:54:23;;;;;;;0.60;0.60;;;;;;;;;;4900288;29;20479;-79
2023/01/03 06:56:50;;;;;;;0.60;0.50;;;;;;;;;;4894548;29;20436;-78
2023/01/03 06:59:18;;;;;;;0.60;0.60;;;;;;;;;;4883208;29;20470;-79
2023/01/03 07:01:46;;;;;;;0.90;0.90;;;;;;;;;;4891319;29;20441;-78
2023/01/03 07:04:16;;;;;;;0.60;0.60;;;;;;;;;;4895296;29;20464;-80
2023/01/03 07:06:44;;;;;;;0.60;0.50;;;;;;;;;;4886153;29;20467;-79
2023/01/03 07:09:13;;;;;;;0.60;0.50;;;;;;;;;;4892185;29;20483;-80
2023/01/03 07:11:39;;;;;;;0.60;0.50;;;;;;;;;;4876697;29;20520;-79
2023/01/03 07:14:08;;;;;;;0.60;0.57;;;;;;;;;;4893638;29;20620;-78
2023/01/03 07:16:36;;;;;;;1.07;0.97;;;;;;;;;;4867903;29;20458;-78
2023/01/03 07:19:04;;;;;;;0.60;0.60;;;;;;;;;;4869141;29;20551;-79
2023/01/03 07:21:31;;;;;;;0.60;0.60;;;;;;;;;;4874260;29;20511;-80
2023/01/03 07:24:02;;;;;;;0.60;0.50;;;;;;;;;;4878251;29;20447;-80
2023/01/03 07:26:30;;;;;;;0.60;0.50;;;;;;;;;;4885225;29;20468;-79
2023/01/03 07:29:03;;;;;;;0.90;0.90;;;;;;;;;;4893875;29;20569;-78
2023/01/03 07:31:31;;;;;;;0.60;0.60;;;;;;;;;;4878346;29;20898;-78
2023/01/03 07:33:58;;;;;;;0.60;0.60;;;;;;;;;;4892777;29;20474;-78
2023/01/03 07:36:27;;;;;;;0.60;0.60;;;;;;;;;;4885220;29;20571;-79
2023/01/03 07:38:55;;;;;;;0.60;0.60;;;;;;;;;;4880391;29;20539;-81
2023/01/03 07:43:35;;;;;;;0.60;0.60;;;;;;;;;;4893883;29;20925;-79
2023/01/03 07:44:12;;;;;;;0.60;0.57;;;;;;;;;;4892404;29;21400;-80
2023/01/03 07:46:39;;;;;;;0.60;0.50;;;;;;;;;;4882360;29;20821;-79
2023/01/03 07:49:06;;;;;;;0.60;0.50;;;;;;;;;;4893016;29;20483;-79
2023/01/03 07:51:38;;;;;;;0.60;0.60;;;;;;;;;;4891186;29;20843;-79
2023/01/03 07:54:06;;;;;;;0.60;0.60;;;;;;;;;;4896525;29;20491;-80
2023/01/03 07:56:35;;;;;;;0.60;0.60;;;;;;;;;;4891998;29;20550;-80
2023/01/03 07:59:03;;;;;;;0.60;0.60;;;;;;;;;;4893941;29;20460;-80
2023/01/03 08:01:31;;;;;;;0.60;0.60;;;;;;;;;;4886271;29;20512;-80
2023/01/03 08:03:58;;;;;;;0.60;0.60;;;;;;;;;;4886203;29;20463;-83
2023/01/03 08:06:25;;;;;;;0.60;0.50;;;;;;;;;;4887189;29;20550;-83
2023/01/03 08:14:25;;;;;;;0.60;0.50;;;;;;;;;;4890084;29;20469;-82
2023/01/03 08:16:53;;;;;;;0.60;0.50;;;;;;;;;;4890504;29;20546;-83
2023/01/03 08:19:20;;;;;;;0.60;0.60;;;;;;;;;;4897050;29;20824;-82
2023/01/03 08:21:47;;;;;;;0.60;0.60;;;;;;;;;;4904439;29;20957;-83
2023/01/03 08:24:16;;;;;;;0.90;0.80;;;;;;;;;;4896518;29;20464;-84
2023/01/03 08:26:44;;;;;;;0.60;0.50;;;;;;;;;;4896895;29;20522;-84
2023/01/03 08:29:13;;;;;;;0.60;0.60;;;;;;;;;;4891934;29;20551;-84
2023/01/03 08:31:43;;;;;;;0.60;0.60;;;;;;;;;;4906935;29;20972;-83
2023/01/03 08:34:11;;;;;;;0.60;0.60;;;;;;;;;;4894790;29;20481;-82
2023/01/03 08:36:48;;;;;;;0.60;0.50;;;;;;;;;;4895134;29;20443;-83
2023/01/03 08:39:17;;;;;;;0.60;0.57;;;;;;;;;;4892876;29;20470;-83
2023/01/03 08:41:47;;;;;;;0.60;0.60;;;;;;;;;;4904163;29;20496;-83
2023/01/03 08:44:13;;;;;;;1.10;1.00;;;;;;;;;;4885817;29;20440;-82
2023/01/03 08:46:44;;;;;;;0.60;0.60;;;;;;;;;;4894910;29;20459;-85
2023/01/03 08:49:13;;;;;;;0.60;0.53;;;;;;;;;;4889751;29;20626;-83
2023/01/03 08:51:40;;;;;;;0.80;0.80;;;;;;;;;;4882138;29;20467;-83
2023/01/03 08:54:09;;;;;;;0.60;0.60;;;;;;;;;;4894616;29;20451;-84
2023/01/03 08:56:37;;;;;;;0.60;0.60;;;;;;;;;;4888509;29;20792;-82
2023/01/03 08:59:05;;;;;;;0.60;0.60;;;;;;;;;;4901706;29;20489;-81
2023/01/03 09:01:33;;;;;;;0.60;0.57;;;;;;;;;;4896454;29;21012;-80
2023/01/03 09:04:01;;;;;;;0.60;0.60;;;;;;;;;;4886819;29;20471;-82
2023/01/03 09:06:28;;;;;;;0.60;0.60;;;;;;;;;;4889430;29;20457;-81
2023/01/03 09:08:55;;;;;;;0.60;0.50;;;;;;;;;;4889360;29;20571;-82
2023/01/03 09:11:22;;;;;;;0.60;0.60;;;;;;;;;;4895271;29;20453;-82
2023/01/03 09:13:48;;;;;;;0.60;0.60;;;;;;;;;;4884234;29;20554;-82
2023/01/03 09:16:17;;;;;;;0.60;0.60;;;;;;;;;;4888141;29;20464;-80
2023/01/03 09:18:43;;;;;;;0.60;0.50;;;;;;;;;;4888704;29;20810;-83
2023/01/03 09:21:10;;;;;;;0.60;0.60;;;;;;;;;;4892830;29;20487;-83
2023/01/03 09:23:37;;;;;;;0.60;0.60;;;;;;;;;;4894473;29;20460;-83
2023/01/03 09:26:05;;;;;;;0.70;0.60;;;;;;;;;;4901188;29;20474;-79
2023/01/03 09:28:32;;;;;;;0.60;0.60;;;;;;;;;;4883654;29;20533;-83
2023/01/03 09:30:59;;;;;;;0.60;0.60;;;;;;;;;;4902279;29;20806;-81
2023/01/03 09:33:28;;;;;;;0.70;0.67;;;;;;;;;;4898514;29;20575;-82
2023/01/03 09:35:55;;;;;;;0.60;0.60;;;;;;;;;;4893838;29;20865;-82
2023/01/03 09:38:22;;;;;;;0.60;0.60;;;;;;;;;;4891312;29;20480;-83
2023/01/03 09:40:56;;;;;;;0.60;0.57;;;;;;;;;;4892148;29;20541;-83
2023/01/03 09:43:24;;;;;;;0.60;0.60;;;;;;;;;;4900877;29;20467;-82
2023/01/03 09:45:54;;;;;;;0.63;0.60;;;;;;;;;;4884993;29;20447;-83
2023/01/03 09:48:24;;;;;;;0.60;0.60;;;;;;;;;;4898748;29;20487;-82
2023/01/03 09:50:52;;;;;;;0.60;0.60;;;;;;;;;;4888320;29;20446;-84
2023/01/03 10:04:52;;;;;;;0.70;0.60;;;;;;;;;;4881841;29;20444;-83
2023/01/03 10:07:27;;;;;;;0.70;0.60;;;;;;;;;;4893385;29;21019;-81
2023/01/03 10:09:58;;;;;;;0.70;0.70;;;;;;;;;;4889156;29;20517;-82
2023/01/03 10:12:30;;;;;;;0.60;0.60;;;;;;;;;;4902059;29;20444;-82
2023/01/03 10:15:05;;;;;;;0.60;0.60;;;;;;;;;;4891640;29;20556;-83
2023/01/03 10:17:38;;;;;;;0.70;0.60;;;;;;;;;;4883236;29;20458;-82
2023/01/03 10:20:12;;;;;;;0.70;0.70;;;;;;;;;;4883082;29;20455;-81
2023/01/03 10:22:40;;;;;;;0.60;0.60;;;;;;;;;;4890616;29;20499;-81
2023/01/03 10:25:09;;;;;;;0.70;0.60;;;;;;;;;;4892673;29;20451;-81
2023/01/03 10:27:38;;;;;;;0.60;0.60;;;;;;;;;;4875628;29;20525;-82
2023/01/03 10:30:11;;;;;;;0.63;0.60;;;;;;;;;;4888424;29;20454;-82
2023/01/03 10:32:48;;;;;;;0.70;0.60;;;;;;;;;;4880391;29;20526;-81
2023/01/03 10:35:18;;;;;;;0.70;0.70;;;;;;;;;;4902043;29;20473;-83
2023/01/03 10:37:47;;;;;;;0.70;0.60;;;;;;;;;;4885273;29;20482;-82
2023/01/03 10:40:17;;;;;;;0.70;0.70;;;;;;;;;;4885091;29;20483;-81
2023/01/03 10:42:45;;;;;;;0.80;0.80;;;;;;;;;;4887454;29;20913;-80
2023/01/03 10:45:14;;;;;;;0.70;0.60;;;;;;;;;;4876337;29;20460;-80
2023/01/03 10:47:41;;;;;;;0.70;0.60;;;;;;;;;;4899464;29;20475;-79
2023/01/03 10:50:18;;;;;;;0.70;0.60;;;;;;;;;;4881183;29;20449;-82
2023/01/03 10:52:46;;;;;;;0.67;0.60;;;;;;;;;;4886334;29;20514;-83
2023/01/03 10:55:17;;;;;;;0.70;0.70;;;;;;;;;;4891110;29;20554;-82
2023/01/03 10:57:47;;;;;;;0.70;0.70;;;;;;;;;;4892384;29;20476;-83
2023/01/03 11:00:21;;;;;;;0.60;0.60;;;;;;;;;;4893154;29;20517;-83
2023/01/03 11:02:51;;;;;;;0.70;0.60;;;;;;;;;;4887887;29;21245;-83
2023/01/03 11:05:19;;;;;;;0.70;0.60;;;;;;;;;;4888806;29;20919;-82
2023/01/03 11:07:51;;;;;;;0.70;0.70;;;;;;;;;;4892377;29;20551;-81
2023/01/03 11:10:18;;;;;;;0.70;0.70;;;;;;;;;;4880583;29;20458;-83
2023/01/03 11:12:47;;;;;;;0.70;0.70;;;;;;;;;;4875901;29;20462;-83
2023/01/03 11:15:15;;;;;;;0.70;0.67;;;;;;;;;;4881436;29;20447;-81
2023/01/03 11:17:51;;;;;;;0.70;0.60;;;;;;;;;;4885072;29;20465;-81
2023/01/03 11:20:19;;;;;;;0.70;0.60;;;;;;;;;;4891323;29;20461;-83
2023/01/03 11:22:53;;;;;;;0.70;0.60;;;;;;;;;;4885815;29;20964;-84
2023/01/03 11:25:32;;;;;;;0.70;0.70;;;;;;;;;;4905164;29;20562;-84
2023/01/03 11:28:11;;;;;;;0.70;0.60;;;;;;;;;;4888386;29;20499;-85
2023/01/03 11:30:49;;;;;;;0.70;0.70;;;;;;;;;;4886395;29;20538;-84
2023/01/03 11:33:31;;;;;;;0.70;0.70;;;;;;;;;;4882914;29;20506;-85
2023/01/03 11:36:08;;;;;;;0.70;0.60;;;;;;;;;;4889600;29;20451;-87
2023/01/03 11:38:49;;;;;;;0.80;0.80;;;;;;;;;;4893045;29;20530;-80
2023/01/03 11:41:25;;;;;;;0.70;0.70;;;;;;;;;;4889710;29;20456;-81
2023/01/03 11:43:58;;;;;;;0.70;0.70;;;;;;;;;;4881899;29;21044;-85
2023/01/03 11:46:38;;;;;;;0.73;0.73;;;;;;;;;;4896290;29;20454;-84
2023/01/03 11:49:16;;;;;;;0.70;0.60;;;;;;;;;;4879571;29;20489;-81
2023/01/03 11:51:46;;;;;;;0.70;0.60;;;;;;;;;;4890623;29;20967;-84
2023/01/03 11:54:26;;;;;;;0.70;0.60;;;;;;;;;;4899372;29;20446;-82
2023/01/03 11:56:53;;;;;;;0.80;0.80;;;;;;;;;;4887463;29;20444;-82
2023/01/03 11:59:44;;;;;;;0.70;0.60;;;;;;;;;;4902294;29;20448;-82
2023/01/03 12:02:26;;;;;;;0.70;0.70;;;;;;;;;;4894686;29;20487;-84
2023/01/03 12:05:00;;;;;;;0.70;0.70;;;;;;;;;;4900284;29;20449;-84
2023/01/03 12:07:31;;;;;;;0.70;0.70;;;;;;;;;;4902124;29;20459;-85
2023/01/03 12:10:18;;;;;;;0.70;0.60;;;;;;;;;;4897211;29;20492;-84
2023/01/03 12:13:01;;;;;;;0.70;0.70;;;;;;;;;;4900783;29;20537;-86
2023/01/03 12:15:34;;;;;;;0.70;0.60;;;;;;;;;;4890385;29;20461;-83
2023/01/03 12:18:03;;;;;;;0.70;0.70;;;;;;;;;;4886568;29;20514;-83
2023/01/03 12:20:32;;;;;;;0.70;0.70;;;;;;;;;;4898361;29;20464;-82
2023/01/03 12:23:01;;;;;;;0.70;0.60;;;;;;;;;;4888741;29;20805;-81
2023/01/03 12:25:33;;;;;;;0.70;0.70;;;;;;;;;;4889280;29;20860;-85
2023/01/03 12:28:02;;;;;;;0.70;0.60;;;;;;;;;;4906487;29;20465;-84
2023/01/03 12:30:34;;;;;;;0.70;0.60;;;;;;;;;;4886699;29;20439;-84
2023/01/03 12:33:03;;;;;;;0.70;0.70;;;;;;;;;;4884244;29;20473;-81
2023/01/03 12:35:33;;;;;;;0.70;0.70;;;;;;;;;;4901838;29;20829;-81
2023/01/03 12:38:02;;;;;;;0.70;0.70;;;;;;;;;;4878283;29;20530;-81
2023/01/03 12:40:38;;;;;;;0.70;0.60;;;;;;;;;;4886899;29;20428;-85
2023/01/03 12:43:10;;;;;;;0.70;0.70;;;;;;;;;;4886288;29;20445;-82
2023/01/03 12:45:41;;;;;;;0.70;0.70;;;;;;;;;;4894949;29;20536;-84
2023/01/03 12:48:17;;;;;;;0.70;0.60;;;;;;;;;;4883888;29;20466;-83
2023/01/03 12:50:46;;;;;;;0.70;0.60;;;;;;;;;;4895335;29;20540;-82
2023/01/03 12:53:17;;;;;;;0.70;0.70;;;;;;;;;;4887018;29;20596;-83
2023/01/03 12:55:52;;;;;;;0.70;0.60;;;;;;;;;;4889403;29;20491;-82
2023/01/03 12:58:25;;;;;;;0.70;0.70;;;;;;;;;;4896219;29;20453;-83
2023/01/03 13:00:55;;;;;;;0.70;0.60;;;;;;;;;;4891358;29;20477;-85
2023/01/03 13:03:25;;;;;;;0.70;0.70;;;;;;;;;;4893294;29;20459;-82
2023/01/03 13:05:55;;;;;;;0.70;0.60;;;;;;;;;;4884585;29;20450;-81
2023/01/03 13:08:28;;;;;;;0.80;0.80;;;;;;;;;;4888366;29;20932;-84
2023/01/03 13:11:02;;;;;;;0.70;0.70;;;;;;;;;;4897861;29;20728;-82
2023/01/03 13:13:30;;;;;;;0.70;0.70;;;;;;;;;;4890887;29;20438;-77
2023/01/03 13:15:57;;;;;;;0.70;0.70;;;;;;;;;;4894690;29;20480;-83
2023/01/03 13:18:30;;;;;;;0.70;0.70;;;;;;;;;;4889231;29;20467;-82
2023/01/03 13:20:57;;;;;;;0.70;0.70;;;;;;;;;;4893141;29;20843;-83
2023/01/03 13:23:28;;;;;;;0.70;0.60;;;;;;;;;;4893529;29;20950;-81
2023/01/03 13:26:18;;;;;;;0.70;0.70;;;;;;;;;;4894907;29;20785;-78
2023/01/03 13:28:45;;;;;;;0.70;0.70;;;;;;;;;;4888054;29;20555;-82
2023/01/03 13:31:45;;;;;;;1.20;1.10;;;;;;;;;;4894399;29;20458;-79
2023/01/03 13:34:29;;;;;;;0.70;0.60;;;;;;;;;;4886347;29;20460;-79
2023/01/03 13:37:15;;;;;;;0.70;0.60;;;;;;;;;;4888283;29;20512;-80
2023/01/03 13:39:45;;;;;;;0.77;0.77;;;;;;;;;;4883330;29;20438;-80
2023/01/03 13:42:22;;;;;;;0.70;0.70;;;;;;;;;;4882860;29;20460;-82
2023/01/03 13:44:49;;;;;;;0.70;0.70;;;;;;;;;;4886439;29;21014;-82
2023/01/03 13:47:24;;;;;;;0.70;0.70;;;;;;;;;;4886925;29;21004;-79
2023/01/03 13:49:52;;;;;;;0.70;0.70;;;;;;;;;;4903031;29;20487;-80
2023/01/03 13:52:34;;;;;;;0.70;0.70;;;;;;;;;;4890682;29;20442;-79
2023/01/03 13:55:01;;;;;;;0.80;0.80;;;;;;;;;;4889779;29;20543;-84
2023/01/03 13:57:33;;;;;;;0.80;0.77;;;;;;;;;;4887656;29;20490;-82
2023/01/03 14:00:04;;;;;;;0.70;0.70;;;;;;;;;;4894043;29;20438;-82
2023/01/03 14:02:55;;;;;;;0.70;0.60;;;;;;;;;;4890830;29;20518;-78
2023/01/03 14:05:56;;;;;;;0.77;0.77;;;;;;;;;;4887412;29;20440;-81
2023/01/03 14:08:37;;;;;;;0.70;0.70;;;;;;;;;;4816071;29;20516;-80
2023/01/03 14:11:16;;;;;;;0.70;0.60;;;;;;;;;;4814340;29;20568;-81
2023/01/03 14:13:46;;;;;;;1.17;1.07;;;;;;;;;;4865022;29;20455;-82
2023/01/03 14:16:18;;;;;;;0.80;0.70;;;;;;;;;;4878898;29;20510;-78
2023/01/03 14:18:50;;;;;;;0.70;0.60;;;;;;;;;;4882628;29;20539;-83
2023/01/03 14:21:21;;;;;;;0.70;0.70;;;;;;;;;;4900828;29;20566;-83
2023/01/03 14:23:54;;;;;;;0.70;0.60;;;;;;;;;;4895202;29;21044;-82
2023/01/03 14:26:27;;;;;;;0.70;0.70;;;;;;;;;;4888880;29;20855;-80
2023/01/03 14:28:55;;;;;;;0.80;0.70;;;;;;;;;;4885178;29;20518;-80
2023/01/03 14:31:25;;;;;;;0.70;0.70;;;;;;;;;;4895692;29;20459;-81
2023/01/03 14:33:54;;;;;;;0.70;0.60;;;;;;;;;;4883766;29;20464;-80
2023/01/03 14:36:21;;;;;;;0.70;0.70;;;;;;;;;;4890589;29;20856;-78
2023/01/03 14:38:49;;;;;;;0.70;0.70;;;;;;;;;;4884412;29;21004;-81
2023/01/03 14:41:27;;;;;;;0.70;0.60;;;;;;;;;;4885958;29;20449;-80
2023/01/03 14:43:59;;;;;;;0.70;0.60;;;;;;;;;;4885564;29;20438;-80
2023/01/03 14:46:27;;;;;;;0.70;0.67;;;;;;;;;;4886210;29;20464;-81
2023/01/03 14:48:54;;;;;;;0.70;0.60;;;;;;;;;;4881576;29;20476;-80
2023/01/03 14:51:30;;;;;;;0.70;0.70;;;;;;;;;;4884962;29;20435;-81
2023/01/03 14:53:58;;;;;;;0.70;0.60;;;;;;;;;;4892813;29;20788;-82
2023/01/03 14:56:25;;;;;;;0.70;0.60;;;;;;;;;;4887768;29;20535;-81
2023/01/03 14:58:53;;;;;;;0.70;0.60;;;;;;;;;;4892893;29;21015;-78
2023/01/03 15:01:22;;;;;;;0.70;0.70;;;;;;;;;;4892575;29;20467;-82
2023/01/03 15:03:50;;;;;;;0.70;0.70;;;;;;;;;;4886666;29;20496;-81
2023/01/03 15:06:19;;;;;;;0.70;0.70;;;;;;;;;;4888849;29;20471;-81
2023/01/03 15:08:47;;;;;;;0.70;0.63;;;;;;;;;;4887202;29;20447;-80
2023/01/03 15:11:20;;;;;;;0.70;0.67;;;;;;;;;;4887555;29;20557;-81
2023/01/03 15:13:49;;;;;;;0.70;0.60;;;;;;;;;;4887805;29;20450;-81
2023/01/03 15:16:19;;;;;;;0.70;0.70;;;;;;;;;;4860574;29;20458;-79
2023/01/03 15:18:48;;;;;;;0.80;0.73;;;;;;;;;;4897169;29;20488;-77
2023/01/03 15:21:20;;;;;;;0.70;0.60;;;;;;;;;;4891057;29;20436;-80
2023/01/03 15:23:48;;;;;;;1.03;0.93;;;;;;;;;;4877425;29;20472;-81
2023/01/03 15:26:18;;;;;;;0.70;0.70;;;;;;;;;;4891780;29;20479;-81
2023/01/03 15:28:50;;;;;;;0.70;0.60;;;;;;;;;;4893134;29;20561;-80
2023/01/03 15:31:26;;;;;;;0.70;0.60;;;;;;;;;;4888947;29;20487;-81
2023/01/03 15:34:02;;;;;;;0.70;0.63;;;;;;;;;;4878577;29;20484;-77
2023/01/03 15:36:31;;;;;;;0.70;0.60;;;;;;;;;;4901682;29;20545;-79
2023/01/03 15:38:58;;;;;;;0.70;0.70;;;;;;;;;;4881720;29;20466;-79
2023/01/03 15:44:15;;;;;;;0.70;0.60;;;;;;;;;;4881929;29;20459;-80
2023/01/03 15:46:44;;;;;;;0.70;0.60;;;;;;;;;;4902211;29;20458;-79
2023/01/03 15:49:18;;;;;;;0.70;0.60;;;;;;;;;;4892473;29;20471;-81
2023/01/03 15:51:46;;;;;;;0.70;0.70;;;;;;;;;;4900092;29;20971;-79
2023/01/03 15:54:14;;;;;;;0.70;0.60;;;;;;;;;;4892620;29;20956;-80
2023/01/03 15:56:46;;;;;;;0.70;0.60;;;;;;;;;;4890258;29;20816;-81
2023/01/03 15:59:18;;;;;;;0.70;0.70;;;;;;;;;;4886449;29;20453;-80
2023/01/03 16:01:45;;;;;;;0.70;0.70;;;;;;;;;;4886202;29;20557;-81
2023/01/03 16:04:12;;;;;;;0.70;0.70;;;;;;;;;;4891697;29;21188;-80
2023/01/03 16:06:40;;;;;;;0.70;0.67;;;;;;;;;;4875452;29;20877;-80